Time;durP1;ratioP1;P1;durP2;ratioP2;P2;SDS_P1;SDS_P2;PMS_P1;PMS_P2;Temp;Humidity;BMP_temperature;BMP_pressure;BME280_temperature;BME280_humidity;BME280_pressure;Samples;Min_cycle;Max_cycle;Signal;HPM_P1;HPM_P2
2023/12/24 00:00:43;;;;;;;;;;;9.10;99.90;;;;;;5054800;28;19968;-36
2023/12/24 00:03:10;;;;;;;;;;;9.10;99.90;;;;;;5072131;28;19945;-37
2023/12/24 00:05:38;;;;;;;;;;;9.10;99.90;;;;;;5058684;28;19940;-34
2023/12/24 00:08:05;;;;;;;;;;;9.10;99.90;;;;;;5051868;28;19988;-35
2023/12/24 00:10:31;;;;;;;;;;;9.10;99.90;;;;;;5063261;28;20016;-37
2023/12/24 00:12:58;;;;;;;;;;;9.10;99.90;;;;;;5070848;28;20032;-34
2023/12/24 00:15:25;;;;;;;;;;;9.10;99.90;;;;;;5070341;28;19942;-35
2023/12/24 00:17:51;;;;;;;;;;;9.10;99.90;;;;;;5071159;28;20008;-34
2023/12/24 00:20:18;;;;;;;;;;;9.10;99.90;;;;;;5071302;28;19998;-36
2023/12/24 00:22:50;;;;;;;;;;;9.10;99.90;;;;;;5072019;28;19995;-35
2023/12/24 00:25:16;;;;;;;;;;;9.10;99.90;;;;;;5070266;28;20249;-34
2023/12/24 00:27:43;;;;;;;;;;;9.10;99.90;;;;;;5072235;28;19988;-35
2023/12/24 00:30:10;;;;;;;;;;;9.10;99.90;;;;;;5071997;28;19990;-36
2023/12/24 00:32:37;;;;;;;;;;;9.10;99.90;;;;;;5070570;28;19993;-35
2023/12/24 00:35:03;;;;;;;;;;;9.10;99.90;;;;;;5071119;28;19945;-34
2023/12/24 00:37:30;;;;;;;;;;;9.10;99.90;;;;;;5068246;28;19964;-34
2023/12/24 00:39:58;;;;;;;;;;;9.10;99.90;;;;;;5070865;28;19942;-35
2023/12/24 00:42:25;;;;;;;;;;;9.10;99.90;;;;;;5070912;28;20415;-35
2023/12/24 00:44:52;;;;;;;;;;;9.10;99.90;;;;;;5068046;28;19947;-35
2023/12/24 00:47:18;;;;;;;;;;;9.10;99.90;;;;;;5071220;28;19949;-35
2023/12/24 00:49:45;;;;;;;;;;;9.10;99.90;;;;;;5071587;28;20340;-35
2023/12/24 00:52:12;;;;;;;;;;;9.10;99.90;;;;;;5070193;28;19939;-34
2023/12/24 00:54:38;;;;;;;;;;;9.10;99.90;;;;;;5070195;28;19937;-34
2023/12/24 00:57:06;;;;;;;;;;;9.10;99.90;;;;;;5070975;28;19991;-35
2023/12/24 00:59:33;;;;;;;;;;;9.10;99.90;;;;;;5070643;28;19992;-35
2023/12/24 01:01:59;;;;;;;;;;;9.10;99.90;;;;;;5070638;28;20055;-34
2023/12/24 01:04:26;;;;;;;;;;;9.10;99.90;;;;;;5070456;28;19977;-35
2023/12/24 01:06:53;;;;;;;;;;;9.10;99.90;;;;;;5072101;28;19924;-35
2023/12/24 01:09:19;;;;;;;;;;;9.10;99.90;;;;;;5073626;28;20345;-34
2023/12/24 01:11:47;;;;;;;;;;;9.10;99.90;;;;;;5074166;28;19940;-35
2023/12/24 01:14:15;;;;;;;;;;;9.10;99.90;;;;;;5073777;28;19983;-34
2023/12/24 01:16:41;;;;;;;;;;;9.10;99.90;;;;;;5091954;28;20006;-35
2023/12/24 01:19:08;;;;;;;;;;;9.10;99.90;;;;;;5074041;28;19941;-35
2023/12/24 01:21:35;;;;;;;;;;;9.10;99.90;;;;;;5073566;28;20011;-34
2023/12/24 01:24:01;;;;;;;;;;;9.10;99.90;;;;;;5072917;28;19988;-34
2023/12/24 01:26:28;;;;;;;;;;;9.10;99.90;;;;;;5073998;28;20008;-36
2023/12/24 01:28:55;;;;;;;;;;;9.10;99.90;;;;;;5073762;28;20435;-35
2023/12/24 01:31:22;;;;;;;;;;;9.10;99.90;;;;;;5073797;28;19939;-37
2023/12/24 01:33:50;;;;;;;;;;;9.20;99.90;;;;;;5073250;28;19939;-35
2023/12/24 01:36:17;;;;;;;;;;;9.20;99.90;;;;;;5092135;28;20396;-35
2023/12/24 01:38:44;;;;;;;;;;;9.10;99.90;;;;;;5076337;28;20007;-35
2023/12/24 01:41:10;;;;;;;;;;;9.20;99.90;;;;;;5093996;28;20026;-36
2023/12/24 01:43:37;;;;;;;;;;;9.20;99.90;;;;;;5075930;28;19991;-33
2023/12/24 01:46:04;;;;;;;;;;;9.20;99.90;;;;;;5094143;28;19995;-34
2023/12/24 01:48:32;;;;;;;;;;;9.20;99.90;;;;;;5093996;28;19986;-34
2023/12/24 01:51:00;;;;;;;;;;;9.10;99.90;;;;;;5075905;28;19990;-34
2023/12/24 01:53:26;;;;;;;;;;;9.20;99.90;;;;;;5076951;28;19941;-33
2023/12/24 01:55:53;;;;;;;;;;;9.20;99.90;;;;;;5075235;28;20013;-34
2023/12/24 01:58:20;;;;;;;;;;;9.20;99.90;;;;;;5090679;28;19939;-36
2023/12/24 02:00:46;;;;;;;;;;;9.20;99.90;;;;;;5094982;28;20019;-34
2023/12/24 02:03:13;;;;;;;;;;;9.20;99.90;;;;;;5076940;28;20011;-35
2023/12/24 02:05:41;;;;;;;;;;;9.20;99.90;;;;;;5075256;28;20446;-34
2023/12/24 02:08:08;;;;;;;;;;;9.10;99.90;;;;;;5076787;28;20003;-34
2023/12/24 02:10:35;;;;;;;;;;;9.20;99.90;;;;;;5073224;28;19965;-34
2023/12/24 02:13:01;;;;;;;;;;;9.20;99.90;;;;;;5073268;28;20401;-34
2023/12/24 02:15:28;;;;;;;;;;;9.20;99.90;;;;;;5073476;28;19944;-35
2023/12/24 02:17:55;;;;;;;;;;;9.20;99.90;;;;;;5074195;28;19963;-34
2023/12/24 02:20:24;;;;;;;;;;;9.20;99.90;;;;;;5072408;28;19987;-35
2023/12/24 02:22:52;;;;;;;;;;;9.20;99.90;;;;;;5072030;28;19986;-35
2023/12/24 02:25:18;;;;;;;;;;;9.30;99.90;;;;;;5071946;28;19942;-36
2023/12/24 02:27:46;;;;;;;;;;;9.20;99.90;;;;;;5072491;28;19946;-34
2023/12/24 02:30:14;;;;;;;;;;;9.20;99.90;;;;;;5072481;28;19940;-35
2023/12/24 02:32:41;;;;;;;;;;;9.30;99.90;;;;;;5071541;28;20565;-35
2023/12/24 02:35:08;;;;;;;;;;;9.30;99.90;;;;;;5071080;28;19992;-36
2023/12/24 02:37:34;;;;;;;;;;;9.20;99.90;;;;;;5073019;28;19938;-35
2023/12/24 02:40:03;;;;;;;;;;;9.30;99.90;;;;;;5072903;28;19942;-35
2023/12/24 02:42:29;;;;;;;;;;;9.30;99.90;;;;;;5071800;28;19951;-34
2023/12/24 02:44:56;;;;;;;;;;;9.30;99.90;;;;;;5071226;28;19998;-34
2023/12/24 02:47:23;;;;;;;;;;;9.30;99.90;;;;;;5069342;28;19994;-34
2023/12/24 02:49:49;;;;;;;;;;;9.30;99.90;;;;;;5073093;28;19924;-34
2023/12/24 02:52:16;;;;;;;;;;;9.20;99.90;;;;;;5070531;28;19989;-35
2023/12/24 02:54:42;;;;;;;;;;;9.20;99.90;;;;;;5072001;28;19947;-35
2023/12/24 02:57:10;;;;;;;;;;;9.30;99.90;;;;;;5088984;28;19929;-36
2023/12/24 02:59:37;;;;;;;;;;;9.30;99.90;;;;;;5072545;28;19992;-34
2023/12/24 03:02:04;;;;;;;;;;;9.30;99.90;;;;;;5071199;28;20011;-34
2023/12/24 03:04:31;;;;;;;;;;;9.30;99.90;;;;;;5072659;28;20369;-34
2023/12/24 03:06:57;;;;;;;;;;;9.30;99.90;;;;;;5070729;28;20021;-35
2023/12/24 03:09:24;;;;;;;;;;;9.20;99.90;;;;;;5075332;28;20369;-36
2023/12/24 03:11:51;;;;;;;;;;;9.30;99.90;;;;;;5074238;28;20417;-35
2023/12/24 03:14:19;;;;;;;;;;;9.20;99.90;;;;;;5092708;28;20306;-35
2023/12/24 03:16:45;;;;;;;;;;;9.30;99.90;;;;;;5074466;28;20726;-34
2023/12/24 03:19:12;;;;;;;;;;;9.30;99.90;;;;;;5074404;28;19972;-34
2023/12/24 03:21:40;;;;;;;;;;;9.30;99.90;;;;;;5074203;28;19955;-33
2023/12/24 03:24:07;;;;;;;;;;;9.30;99.90;;;;;;5074161;28;19962;-35
2023/12/24 03:26:33;;;;;;;;;;;9.30;99.90;;;;;;5075361;28;19993;-35
2023/12/24 03:29:00;;;;;;;;;;;9.30;99.90;;;;;;5074395;28;19987;-34
2023/12/24 03:31:28;;;;;;;;;;;9.30;99.90;;;;;;5074000;28;20426;-37
2023/12/24 03:33:55;;;;;;;;;;;9.30;99.90;;;;;;5072792;28;19947;-35
2023/12/24 03:36:21;;;;;;;;;;;9.30;99.90;;;;;;5092109;28;19936;-34
2023/12/24 03:38:48;;;;;;;;;;;9.30;99.90;;;;;;5092077;28;19985;-35
2023/12/24 03:41:15;;;;;;;;;;;9.30;99.90;;;;;;5067758;28;19953;-35
2023/12/24 03:43:42;;;;;;;;;;;9.30;99.90;;;;;;5056375;28;19943;-34
2023/12/24 03:46:09;;;;;;;;;;;9.30;99.90;;;;;;5092707;28;20352;-34
2023/12/24 03:48:37;;;;;;;;;;;9.30;99.90;;;;;;5092278;28;20433;-34
2023/12/24 03:51:04;;;;;;;;;;;9.30;99.90;;;;;;5091973;28;19943;-35
2023/12/24 03:53:31;;;;;;;;;;;9.40;99.90;;;;;;5074404;28;19941;-36
2023/12/24 03:55:58;;;;;;;;;;;9.40;99.90;;;;;;5074140;28;20426;-34
2023/12/24 03:58:24;;;;;;;;;;;9.40;99.90;;;;;;5091953;28;19937;-36
2023/12/24 04:00:51;;;;;;;;;;;9.40;99.90;;;;;;5074577;28;19939;-35
2023/12/24 04:03:18;;;;;;;;;;;9.40;99.90;;;;;;5092711;28;20336;-34
2023/12/24 04:05:46;;;;;;;;;;;9.40;99.90;;;;;;5092141;28;20391;-36
2023/12/24 04:08:12;;;;;;;;;;;9.40;99.90;;;;;;5092729;28;20648;-34
2023/12/24 04:10:39;;;;;;;;;;;9.40;99.90;;;;;;5074219;28;19960;-34
2023/12/24 04:13:06;;;;;;;;;;;9.40;99.90;;;;;;5074833;28;19941;-34
2023/12/24 04:15:33;;;;;;;;;;;9.40;99.90;;;;;;5074329;28;20428;-35
2023/12/24 04:18:00;;;;;;;;;;;9.40;99.90;;;;;;5092430;28;19949;-34
2023/12/24 04:20:26;;;;;;;;;;;9.40;99.90;;;;;;5092106;28;19944;-35
2023/12/24 04:22:54;;;;;;;;;;;9.40;99.90;;;;;;5092495;28;19965;-35
2023/12/24 04:25:20;;;;;;;;;;;9.40;99.90;;;;;;5091985;28;20359;-35
2023/12/24 04:27:46;;;;;;;;;;;9.40;99.90;;;;;;5073892;28;19943;-34
2023/12/24 04:30:13;;;;;;;;;;;9.40;99.90;;;;;;5073587;28;19981;-35
2023/12/24 04:32:40;;;;;;;;;;;9.50;99.90;;;;;;5091256;28;20519;-35
2023/12/24 04:35:07;;;;;;;;;;;9.60;99.90;;;;;;5072869;28;19938;-35
2023/12/24 04:37:34;;;;;;;;;;;9.50;99.90;;;;;;5091427;28;19947;-34
2023/12/24 04:40:02;;;;;;;;;;;9.50;99.90;;;;;;5073325;28;19943;-36
2023/12/24 04:42:28;;;;;;;;;;;9.50;99.90;;;;;;5072863;28;19956;-35
2023/12/24 04:44:55;;;;;;;;;;;9.50;99.90;;;;;;5073638;28;19987;-36
2023/12/24 04:47:21;;;;;;;;;;;9.50;99.90;;;;;;5073374;28;19937;-35
2023/12/24 04:49:48;;;;;;;;;;;9.50;99.90;;;;;;5073637;28;19942;-35
2023/12/24 04:52:15;;;;;;;;;;;9.50;99.90;;;;;;5073285;28;19990;-35
2023/12/24 04:54:41;;;;;;;;;;;9.50;99.90;;;;;;5073908;28;19948;-35
2023/12/24 04:57:09;;;;;;;;;;;9.60;99.90;;;;;;5090186;28;19944;-37
2023/12/24 04:59:36;;;;;;;;;;;9.60;99.90;;;;;;5074029;28;19940;-35
2023/12/24 05:02:03;;;;;;;;;;;9.60;99.90;;;;;;5090858;28;20363;-35
2023/12/24 05:04:32;;;;;;;;;;;9.60;99.90;;;;;;5091528;28;19943;-34
2023/12/24 05:06:59;;;;;;;;;;;9.60;99.90;;;;;;5089502;28;20330;-35
2023/12/24 05:09:26;;;;;;;;;;;9.60;99.90;;;;;;5072445;28;19958;-33
2023/12/24 05:11:52;;;;;;;;;;;9.60;99.90;;;;;;5076947;28;19947;-34
2023/12/24 05:14:20;;;;;;;;;;;9.60;99.90;;;;;;5094585;28;20035;-35
2023/12/24 05:16:47;;;;;;;;;;;9.70;99.90;;;;;;5095876;28;19988;-34
2023/12/24 05:19:13;;;;;;;;;;;9.60;99.90;;;;;;5093542;28;19995;-35
2023/12/24 05:21:40;;;;;;;;;;;9.70;99.90;;;;;;5076308;28;20004;-35
2023/12/24 05:24:07;;;;;;;;;;;9.70;99.90;;;;;;5075940;28;20498;-35
2023/12/24 05:26:34;;;;;;;;;;;9.70;99.90;;;;;;5077032;28;19945;-34
2023/12/24 05:29:00;;;;;;;;;;;9.70;99.90;;;;;;5076572;28;19997;-35
2023/12/24 05:31:28;;;;;;;;;;;9.70;99.90;;;;;;5092904;28;19949;-35
2023/12/24 05:33:55;;;;;;;;;;;9.70;99.90;;;;;;5075541;28;19941;-35
2023/12/24 05:36:25;;;;;;;;;;;9.70;99.90;;;;;;5095632;28;19946;-34
2023/12/24 05:38:51;;;;;;;;;;;9.70;99.90;;;;;;5076993;28;19947;-35
2023/12/24 05:41:18;;;;;;;;;;;9.80;99.90;;;;;;5076620;28;19942;-35
2023/12/24 05:43:44;;;;;;;;;;;9.70;99.90;;;;;;5077419;28;20031;-34
2023/12/24 05:46:11;;;;;;;;;;;9.70;99.90;;;;;;5075991;28;19993;-34
2023/12/24 05:48:39;;;;;;;;;;;9.80;99.90;;;;;;5094241;28;19935;-34
2023/12/24 05:51:06;;;;;;;;;;;9.80;99.90;;;;;;5093538;28;19995;-37
2023/12/24 05:53:33;;;;;;;;;;;9.80;99.90;;;;;;5075962;28;19957;-36
2023/12/24 05:56:00;;;;;;;;;;;9.80;99.90;;;;;;5094159;28;20637;-34
2023/12/24 05:58:26;;;;;;;;;;;9.80;99.90;;;;;;5075938;28;19942;-36
2023/12/24 06:00:53;;;;;;;;;;;9.80;99.90;;;;;;5093286;28;19958;-34
2023/12/24 06:03:20;;;;;;;;;;;9.80;99.90;;;;;;5074976;28;20335;-35
2023/12/24 06:05:48;;;;;;;;;;;9.80;99.90;;;;;;5075791;28;19940;-35
2023/12/24 06:08:14;;;;;;;;;;;9.80;99.90;;;;;;5075211;28;19934;-33
2023/12/24 06:10:41;;;;;;;;;;;9.80;99.90;;;;;;5075738;28;20017;-36
2023/12/24 06:13:08;;;;;;;;;;;9.80;99.90;;;;;;5075763;28;20400;-36
2023/12/24 06:15:34;;;;;;;;;;;9.80;99.90;;;;;;5076168;28;19940;-35
2023/12/24 06:18:01;;;;;;;;;;;9.90;99.90;;;;;;5093842;28;19941;-34
2023/12/24 06:20:29;;;;;;;;;;;9.90;99.90;;;;;;5075372;28;19940;-36
2023/12/24 06:22:57;;;;;;;;;;;9.90;99.90;;;;;;5067567;28;19969;-33
2023/12/24 06:25:24;;;;;;;;;;;9.90;99.90;;;;;;5070767;28;19993;-34
2023/12/24 06:27:51;;;;;;;;;;;9.90;99.90;;;;;;5094148;28;19942;-36
2023/12/24 06:30:17;;;;;;;;;;;9.90;99.90;;;;;;5093570;28;19928;-37
2023/12/24 06:32:46;;;;;;;;;;;10.00;99.90;;;;;;5094308;28;19924;-35
2023/12/24 06:35:13;;;;;;;;;;;10.00;99.90;;;;;;5074671;28;19999;-35
2023/12/24 06:37:40;;;;;;;;;;;10.00;99.90;;;;;;5075590;28;19936;-37
2023/12/24 06:40:08;;;;;;;;;;;10.00;99.90;;;;;;5075724;28;19937;-34
2023/12/24 06:42:35;;;;;;;;;;;10.00;99.90;;;;;;5093434;28;19990;-35
2023/12/24 06:45:01;;;;;;;;;;;10.00;99.90;;;;;;5094105;28;19941;-35
2023/12/24 06:47:28;;;;;;;;;;;10.10;99.90;;;;;;5075663;28;19945;-36
2023/12/24 06:49:55;;;;;;;;;;;10.10;99.90;;;;;;5075782;28;20371;-35
2023/12/24 06:52:21;;;;;;;;;;;10.10;99.90;;;;;;5075492;28;19951;-36
2023/12/24 06:54:48;;;;;;;;;;;10.10;99.90;;;;;;5076123;28;19928;-33
2023/12/24 06:57:16;;;;;;;;;;;10.10;99.90;;;;;;5093763;28;20032;-36
2023/12/24 06:59:43;;;;;;;;;;;10.10;99.90;;;;;;5075853;28;19991;-36
2023/12/24 07:02:09;;;;;;;;;;;10.20;99.90;;;;;;5075273;28;19952;-34
2023/12/24 07:04:36;;;;;;;;;;;10.20;99.90;;;;;;5093578;28;19944;-35
2023/12/24 07:07:02;;;;;;;;;;;10.20;99.90;;;;;;5073648;28;19944;-35
2023/12/24 07:13:05;;;;;;;;;;;10.20;99.90;;;;;;5063708;28;19935;-36
2023/12/24 07:15:32;;;;;;;;;;;10.20;99.90;;;;;;5072042;28;20345;-34
2023/12/24 07:17:59;;;;;;;;;;;10.30;99.90;;;;;;5072352;28;19976;-37
2023/12/24 07:20:25;;;;;;;;;;;10.30;99.90;;;;;;5071638;28;19938;-35
2023/12/24 07:22:52;;;;;;;;;;;10.30;99.90;;;;;;5054139;28;20360;-35
2023/12/24 07:25:19;;;;;;;;;;;10.30;99.90;;;;;;5072348;28;20084;-35
2023/12/24 07:27:45;;;;;;;;;;;10.30;99.90;;;;;;5053724;28;19945;-35
2023/12/24 07:30:14;;;;;;;;;;;10.30;99.90;;;;;;5054237;28;19988;-34
2023/12/24 07:32:43;;;;;;;;;;;10.30;99.90;;;;;;5053475;28;19937;-34
2023/12/24 07:35:10;;;;;;;;;;;10.30;99.90;;;;;;5052839;28;19935;-36
2023/12/24 07:37:36;;;;;;;;;;;10.30;99.90;;;;;;5053685;28;20312;-35
2023/12/24 07:40:03;;;;;;;;;;;10.30;99.90;;;;;;5053785;28;19942;-34
2023/12/24 07:42:30;;;;;;;;;;;10.40;99.90;;;;;;5046521;28;19960;-35
2023/12/24 07:44:57;;;;;;;;;;;10.40;99.90;;;;;;5071602;28;19941;-36
2023/12/24 07:47:25;;;;;;;;;;;10.40;99.90;;;;;;5053864;28;19941;-35
2023/12/24 07:49:51;;;;;;;;;;;10.40;99.90;;;;;;5069529;28;19994;-35
2023/12/24 07:52:18;;;;;;;;;;;10.40;99.90;;;;;;5054510;28;19947;-34
2023/12/24 07:54:45;;;;;;;;;;;10.40;99.90;;;;;;5053862;28;19942;-36
2023/12/24 07:57:11;;;;;;;;;;;10.40;99.90;;;;;;5072703;28;19943;-35
2023/12/24 07:59:38;;;;;;;;;;;10.40;99.90;;;;;;5053801;28;19941;-34
2023/12/24 08:02:05;;;;;;;;;;;10.40;99.90;;;;;;5072023;28;19989;-35
2023/12/24 08:04:33;;;;;;;;;;;10.40;99.90;;;;;;5068823;28;20038;-35
2023/12/24 08:06:59;;;;;;;;;;;10.40;99.90;;;;;;5072559;28;20347;-35
2023/12/24 08:09:26;;;;;;;;;;;10.40;99.90;;;;;;5072379;28;19996;-34
2023/12/24 08:11:54;;;;;;;;;;;10.40;99.90;;;;;;5068235;28;20048;-34
2023/12/24 08:14:20;;;;;;;;;;;10.50;99.90;;;;;;5071027;28;19935;-36
2023/12/24 08:16:46;;;;;;;;;;;10.50;99.90;;;;;;5069488;28;20329;-34
2023/12/24 08:19:12;;;;;;;;;;;10.50;99.90;;;;;;5069291;28;20002;-35
2023/12/24 08:21:40;;;;;;;;;;;10.50;99.90;;;;;;5071022;28;19937;-35
2023/12/24 08:24:08;;;;;;;;;;;10.50;99.90;;;;;;5068270;28;20468;-34
2023/12/24 08:26:35;;;;;;;;;;;10.50;99.90;;;;;;5069252;28;19938;-35
2023/12/24 08:29:02;;;;;;;;;;;10.50;99.90;;;;;;5069810;28;20350;-36
2023/12/24 08:31:29;;;;;;;;;;;10.50;99.90;;;;;;5071681;28;20377;-36
2023/12/24 08:33:55;;;;;;;;;;;10.50;99.90;;;;;;5069772;28;19992;-35
2023/12/24 08:36:22;;;;;;;;;;;10.60;99.90;;;;;;5070330;28;19993;-36
2023/12/24 08:38:50;;;;;;;;;;;10.60;99.90;;;;;;5069765;28;19950;-38
2023/12/24 08:41:17;;;;;;;;;;;10.60;99.90;;;;;;5070168;28;19935;-36
2023/12/24 08:43:43;;;;;;;;;;;10.60;99.90;;;;;;5067695;28;20490;-36
2023/12/24 08:46:10;;;;;;;;;;;10.60;99.90;;;;;;5071718;28;19986;-36
2023/12/24 08:48:37;;;;;;;;;;;10.60;99.90;;;;;;5073794;28;19924;-36
2023/12/24 08:51:04;;;;;;;;;;;10.70;99.90;;;;;;5073895;28;19945;-38
2023/12/24 08:53:31;;;;;;;;;;;10.70;99.90;;;;;;5072293;28;20385;-34
2023/12/24 08:55:59;;;;;;;;;;;10.70;99.90;;;;;;5068585;28;20316;-35
2023/12/24 08:58:26;;;;;;;;;;;10.70;99.90;;;;;;5074888;28;19982;-34
2023/12/24 09:00:53;;;;;;;;;;;10.70;99.90;;;;;;5072225;28;19983;-36
2023/12/24 09:03:20;;;;;;;;;;;10.70;99.90;;;;;;5067893;28;20010;-36
2023/12/24 09:05:46;;;;;;;;;;;10.80;99.90;;;;;;5072935;28;19941;-36
2023/12/24 09:08:13;;;;;;;;;;;10.80;99.90;;;;;;5074381;28;19944;-35
2023/12/24 09:10:41;;;;;;;;;;;10.80;99.90;;;;;;5073600;28;20028;-33
2023/12/24 09:13:09;;;;;;;;;;;10.90;99.90;;;;;;5078850;28;19947;-34
2023/12/24 09:15:35;;;;;;;;;;;10.80;99.90;;;;;;5052499;28;19953;-35
2023/12/24 09:18:02;;;;;;;;;;;10.80;99.90;;;;;;5072806;28;20422;-35
2023/12/24 09:20:29;;;;;;;;;;;10.80;99.90;;;;;;5082755;28;19938;-35
2023/12/24 09:22:55;;;;;;;;;;;10.90;99.90;;;;;;5073137;28;19959;-35
2023/12/24 09:25:22;;;;;;;;;;;10.90;99.90;;;;;;5056344;28;19944;-36
2023/12/24 09:27:49;;;;;;;;;;;10.90;99.90;;;;;;5060414;28;19943;-34
2023/12/24 09:30:17;;;;;;;;;;;10.90;99.90;;;;;;5072876;28;20250;-35
2023/12/24 09:32:43;;;;;;;;;;;10.90;99.90;;;;;;5044731;28;19941;-35
2023/12/24 09:35:10;;;;;;;;;;;10.90;99.90;;;;;;5056302;28;20032;-38
2023/12/24 09:37:36;;;;;;;;;;;10.90;99.90;;;;;;5075106;28;20025;-35
2023/12/24 09:40:03;;;;;;;;;;;10.90;99.90;;;;;;5056788;28;19942;-38
2023/12/24 09:42:30;;;;;;;;;;;11.00;99.90;;;;;;5056974;28;20376;-40
2023/12/24 09:44:56;;;;;;;;;;;11.00;99.90;;;;;;5074879;28;19964;-34
2023/12/24 09:47:24;;;;;;;;;;;11.00;99.90;;;;;;5040491;28;19943;-36
2023/12/24 09:49:51;;;;;;;;;;;11.00;99.90;;;;;;5055336;28;19943;-35
2023/12/24 09:52:19;;;;;;;;;;;11.00;99.90;;;;;;5074310;28;20288;-36
2023/12/24 09:54:46;;;;;;;;;;;11.00;99.90;;;;;;5074561;28;19948;-35
2023/12/24 09:57:13;;;;;;;;;;;11.00;99.90;;;;;;5073194;28;20306;-37
2023/12/24 09:59:39;;;;;;;;;;;11.10;99.90;;;;;;5056954;28;19942;-35
2023/12/24 10:02:06;;;;;;;;;;;11.10;99.90;;;;;;5056937;28;19988;-34
2023/12/24 10:04:34;;;;;;;;;;;11.10;99.90;;;;;;5056132;28;20297;-36
2023/12/24 10:07:00;;;;;;;;;;;11.10;99.90;;;;;;5056576;28;20384;-36
2023/12/24 10:09:41;;;;;;;;;;;11.20;99.90;;;;;;5057096;28;19942;-35
2023/12/24 10:12:08;;;;;;;;;;;11.20;99.90;;;;;;5073189;28;19955;-36
2023/12/24 10:14:35;;;;;;;;;;;11.20;99.90;;;;;;5055408;28;20028;-36
2023/12/24 10:17:03;;;;;;;;;;;11.30;99.90;;;;;;5055048;28;20393;-36
2023/12/24 10:19:30;;;;;;;;;;;11.30;99.90;;;;;;5072565;28;20382;-35
2023/12/24 10:22:01;;;;;;;;;;;11.30;99.90;;;;;;5055252;28;19942;-35
2023/12/24 10:24:29;;;;;;;;;;;11.30;99.90;;;;;;5054354;28;20386;-36
2023/12/24 10:26:59;;;;;;;;;;;11.30;99.90;;;;;;4979987;22;20476;-36
2023/12/24 10:29:26;;;;;;;;;;;11.30;99.90;;;;;;5069597;28;19938;-36
2023/12/24 10:31:52;;;;;;;;;;;11.40;99.90;;;;;;5092271;28;19943;-35
2023/12/24 10:34:19;;;;;;;;;;;11.40;99.90;;;;;;5092402;28;19985;-35
2023/12/24 10:36:46;;;;;;;;;;;11.40;99.90;;;;;;5093421;28;19989;-35
2023/12/24 10:39:17;;;;;;;;;;;11.40;99.90;;;;;;5076093;28;19948;-36
2023/12/24 10:41:43;;;;;;;;;;;11.40;99.90;;;;;;5074525;28;19940;-36
2023/12/24 10:44:10;;;;;;;;;;;11.40;99.90;;;;;;5075066;28;20049;-38
2023/12/24 10:46:37;;;;;;;;;;;11.50;99.90;;;;;;5075855;28;20316;-36
2023/12/24 10:49:04;;;;;;;;;;;11.50;99.90;;;;;;5075356;28;20418;-36
2023/12/24 10:51:30;;;;;;;;;;;11.50;99.90;;;;;;5075600;28;19989;-35
2023/12/24 10:53:57;;;;;;;;;;;11.60;99.90;;;;;;5075914;28;19940;-39
2023/12/24 10:56:27;;;;;;;;;;;11.60;99.90;;;;;;5075223;28;19924;-37
2023/12/24 10:58:56;;;;;;;;;;;11.60;99.90;;;;;;5074184;28;19986;-35
2023/12/24 11:01:22;;;;;;;;;;;11.60;99.90;;;;;;5092595;28;19962;-35
2023/12/24 11:03:49;;;;;;;;;;;11.60;99.90;;;;;;5090913;28;19951;-37
2023/12/24 11:06:35;;;;;;;;;;;11.60;99.90;;;;;;5071665;28;20401;-36
2023/12/24 11:09:02;;;;;;;;;;;11.60;99.90;;;;;;5092090;28;19933;-36
2023/12/24 11:11:30;;;;;;;;;;;11.70;99.90;;;;;;5075055;28;19935;-34
2023/12/24 11:13:58;;;;;;;;;;;11.60;99.90;;;;;;5074432;28;20363;-36
2023/12/24 11:16:37;;;;;;;;;;;11.70;99.90;;;;;;5075118;28;19941;-36
2023/12/24 11:19:04;;;;;;;;;;;11.70;99.90;;;;;;5075004;28;20007;-35
2023/12/24 11:21:31;;;;;;;;;;;11.70;99.90;;;;;;5074441;28;19990;-35
2023/12/24 11:24:22;;;;;;;;;;;11.70;99.90;;;;;;5091814;28;20014;-34
2023/12/24 11:26:53;;;;;;;;;;;11.70;99.90;;;;;;5068209;28;20314;-36
2023/12/24 11:29:38;;;;;;;;;;;11.70;99.90;;;;;;5112688;28;20026;-35
2023/12/24 11:32:20;;;;;;;;;;;11.70;99.90;;;;;;5094159;28;19937;-36
2023/12/24 11:34:46;;;;;;;;;;;11.70;99.90;;;;;;5102638;28;19993;-36
2023/12/24 11:37:13;;;;;;;;;;;11.70;99.90;;;;;;5090807;28;19991;-35
2023/12/24 11:39:55;;;;;;;;;;;11.60;99.90;;;;;;5106942;28;20456;-36
2023/12/24 11:42:23;;;;;;;;;;;11.70;99.90;;;;;;5090325;28;19972;-34
2023/12/24 11:44:55;;;;;;;;;;;11.70;99.90;;;;;;5111244;28;19934;-35
2023/12/24 11:47:22;;;;;;;;;;;11.70;99.90;;;;;;5108305;28;19942;-35
2023/12/24 11:49:48;;;;;;;;;;;11.80;99.90;;;;;;5089573;28;20401;-36
2023/12/24 11:52:15;;;;;;;;;;;11.80;99.90;;;;;;5108431;28;19941;-37
2023/12/24 11:54:41;;;;;;;;;;;11.80;99.90;;;;;;5112615;28;19945;-35
2023/12/24 11:57:08;;;;;;;;;;;11.80;99.90;;;;;;5112220;28;19940;-35
2023/12/24 11:59:36;;;;;;;;;;;11.80;99.90;;;;;;5092166;28;19946;-35
2023/12/24 12:02:03;;;;;;;;;;;11.80;99.90;;;;;;5099636;28;19941;-34
2023/12/24 12:04:30;;;;;;;;;;;11.80;99.90;;;;;;5112324;28;19953;-36
2023/12/24 12:06:56;;;;;;;;;;;11.80;99.90;;;;;;5090975;28;19945;-35
2023/12/24 12:09:23;;;;;;;;;;;11.80;99.90;;;;;;5091910;28;19945;-35
2023/12/24 12:11:50;;;;;;;;;;;11.80;99.90;;;;;;5109644;28;19949;-35
2023/12/24 12:14:16;;;;;;;;;;;11.80;99.90;;;;;;5089723;28;19939;-35
2023/12/24 12:16:44;;;;;;;;;;;11.80;99.90;;;;;;5093702;28;19938;-34
2023/12/24 12:19:11;;;;;;;;;;;11.90;99.90;;;;;;5089425;28;19987;-37
2023/12/24 12:21:38;;;;;;;;;;;11.80;99.90;;;;;;5110054;28;19940;-36
2023/12/24 12:24:05;;;;;;;;;;;11.80;99.90;;;;;;5084662;28;20011;-35
2023/12/24 12:26:32;;;;;;;;;;;11.80;99.90;;;;;;5083237;28;19965;-34
2023/12/24 12:28:58;;;;;;;;;;;11.80;99.90;;;;;;5088669;28;19985;-34
2023/12/24 12:31:25;;;;;;;;;;;11.80;99.90;;;;;;5103360;28;19938;-36
2023/12/24 12:33:53;;;;;;;;;;;11.80;99.90;;;;;;5100416;28;19944;-36
2023/12/24 12:36:19;;;;;;;;;;;11.80;99.90;;;;;;5076166;28;20470;-35
2023/12/24 12:38:46;;;;;;;;;;;11.80;99.90;;;;;;5089079;28;19941;-34
2023/12/24 12:41:13;;;;;;;;;;;11.80;99.90;;;;;;5092435;28;19995;-35
2023/12/24 12:43:39;;;;;;;;;;;11.80;99.90;;;;;;5093407;28;19940;-36
2023/12/24 12:46:06;;;;;;;;;;;11.80;99.90;;;;;;5109257;28;19927;-35
2023/12/24 12:48:33;;;;;;;;;;;11.80;99.90;;;;;;5107746;28;20462;-36
2023/12/24 12:51:01;;;;;;;;;;;11.80;99.90;;;;;;5110394;28;19934;-36
2023/12/24 12:53:27;;;;;;;;;;;11.80;99.90;;;;;;5111843;28;20002;-35
2023/12/24 12:56:00;;;;;;;;;;;11.80;99.90;;;;;;5084652;28;20283;-37
2023/12/24 12:58:26;;;;;;;;;;;11.80;99.90;;;;;;5082665;28;19947;-34
2023/12/24 13:00:57;;;;;;;;;;;11.80;99.90;;;;;;5110905;28;19942;-34
2023/12/24 13:03:23;;;;;;;;;;;11.80;99.90;;;;;;5111174;28;19938;-35
2023/12/24 13:05:50;;;;;;;;;;;11.80;99.90;;;;;;5089578;28;19957;-36
2023/12/24 13:08:18;;;;;;;;;;;11.80;99.90;;;;;;5103336;28;19938;-36
2023/12/24 13:10:45;;;;;;;;;;;11.80;99.90;;;;;;5087186;28;20689;-35
2023/12/24 13:13:12;;;;;;;;;;;11.80;99.90;;;;;;5089526;28;19986;-36
2023/12/24 13:15:38;;;;;;;;;;;11.80;99.90;;;;;;5090087;28;19966;-35
2023/12/24 13:18:18;;;;;;;;;;;11.80;99.90;;;;;;5090474;28;20343;-34
2023/12/24 13:20:45;;;;;;;;;;;11.80;99.90;;;;;;5110793;28;19993;-37
2023/12/24 13:23:11;;;;;;;;;;;11.90;99.90;;;;;;5089254;28;19941;-34
2023/12/24 13:25:43;;;;;;;;;;;12.00;99.90;;;;;;5090576;28;19953;-35
2023/12/24 13:28:10;;;;;;;;;;;11.90;99.90;;;;;;5098700;28;19957;-35
2023/12/24 13:30:36;;;;;;;;;;;11.90;99.90;;;;;;5091085;28;20458;-36
2023/12/24 13:33:03;;;;;;;;;;;11.80;99.90;;;;;;5092318;28;19928;-35
2023/12/24 13:35:32;;;;;;;;;;;11.90;99.90;;;;;;5091363;28;19937;-35
2023/12/24 13:37:59;;;;;;;;;;;12.00;99.90;;;;;;5092558;28;19938;-35
2023/12/24 13:40:26;;;;;;;;;;;11.90;99.90;;;;;;5091467;28;19942;-34
2023/12/24 13:42:54;;;;;;;;;;;11.90;99.90;;;;;;5090290;28;19993;-37
2023/12/24 13:45:20;;;;;;;;;;;11.90;99.90;;;;;;5104569;28;20003;-35
2023/12/24 13:47:47;;;;;;;;;;;11.90;99.90;;;;;;5113723;28;19938;-36
2023/12/24 13:50:13;;;;;;;;;;;11.90;99.90;;;;;;5103987;28;20371;-35
2023/12/24 13:52:40;;;;;;;;;;;11.90;99.90;;;;;;5100534;28;19981;-35
2023/12/24 13:55:07;;;;;;;;;;;11.90;99.90;;;;;;5111946;28;19938;-37
2023/12/24 13:57:36;;;;;;;;;;;11.90;99.90;;;;;;5113912;28;20118;-36
2023/12/24 14:00:04;;;;;;;;;;;11.80;99.90;;;;;;5085988;28;19939;-35
2023/12/24 14:02:31;;;;;;;;;;;11.80;99.90;;;;;;5088697;28;19947;-35
2023/12/24 14:04:58;;;;;;;;;;;11.80;99.90;;;;;;5113665;28;20031;-35
2023/12/24 14:07:24;;;;;;;;;;;11.80;99.90;;;;;;5092704;28;19937;-36
2023/12/24 14:09:51;;;;;;;;;;;11.80;99.90;;;;;;5112971;28;19990;-35
2023/12/24 14:12:17;;;;;;;;;;;11.80;99.90;;;;;;5112121;28;19999;-35
2023/12/24 14:14:44;;;;;;;;;;;11.80;99.90;;;;;;5108747;28;19993;-35
2023/12/24 14:17:12;;;;;;;;;;;11.80;99.90;;;;;;5090934;28;19999;-35
2023/12/24 14:19:39;;;;;;;;;;;11.80;99.90;;;;;;5111452;28;20326;-36
2023/12/24 14:22:05;;;;;;;;;;;11.80;99.90;;;;;;5113106;28;19939;-35
2023/12/24 14:24:32;;;;;;;;;;;11.80;99.90;;;;;;5082872;28;19998;-36
2023/12/24 14:26:59;;;;;;;;;;;11.80;99.90;;;;;;5091739;28;19924;-36